Ole-arvid Nergaard — LLAY — position and weather

sailwx.info

Track history (hours):
 
Tides and Currents Weather Stations Pressure Air Temp Water Temp Dewpoint Dewpoint Depression Visibility Wind Speed Wind Dir Waves Ship Positions

Ole-arvid Nergaard

Last reported at 2017-Oct-11 00:00 UTC. Time now 2017-Oct-19 18:15 UTC.
Position N 69°40' E 018°59'.
Warning: this ship's position is 8 days out of date.

Length 55 m; draft 7.2 m.

Type: Fishing. MMSI: 259656000.

Date/timePositionNaut miles runAvg speedWind from/ knotsBaromVisibWave heightAir tempDewpointWater temp
2017-Oct-11 00:00N 69°40' E 018°59'0 0.0
2017-Oct-10 23:30N 69°40' E 018°59'0 0.0
2017-Oct-10 23:00N 69°40' E 018°59'0 0.0
2017-Oct-10 22:31N 69°40' E 018°59'0 0.0
2017-Oct-10 22:00N 69°40' E 018°59'0 0.0
2017-Oct-10 21:30N 69°40' E 018°59'0 0.0
2017-Oct-10 21:00N 69°40' E 018°59'0 0.0
2017-Oct-10 20:30N 69°40' E 018°59'0 0.0
2017-Oct-10 20:01N 69°40' E 018°59'0 0.0
2017-Oct-10 19:30N 69°40' E 018°59'0 0.0
2017-Oct-10 19:01N 69°40' E 018°59'0 0.0
2017-Oct-10 18:30N 69°40' E 018°59'0 0.0
2017-Oct-10 18:00N 69°40' E 018°59'0 0.0
2017-Oct-10 17:30N 69°40' E 018°59'0 0.0
2017-Oct-10 17:01N 69°40' E 018°59'0 0.0
2017-Oct-10 16:30N 69°40' E 018°59'1 1.8
2017-Oct-10 15:59N 69°40' E 018°58'0 0.0
2017-Oct-10 15:30N 69°40' E 018°58'0 0.0
2017-Oct-10 15:00N 69°40' E 018°58'0 0.0
2017-Oct-10 14:00N 69°40' E 018°58'1 1.5
2017-Oct-10 13:30N 69°40' E 018°59'0 0.5
2017-Oct-10 13:00N 69°40' E 018°59'0 0.0
2017-Oct-10 12:30N 69°40' E 018°59'0 0.0
2017-Oct-10 12:00N 69°40' E 018°59'0 0.0
2017-Oct-10 11:30N 69°40' E 018°59'0 0.0
2017-Oct-10 11:01N 69°40' E 018°59'0 0.0
2017-Oct-10 10:30N 69°40' E 018°59'0 0.0
2017-Oct-10 10:00N 69°40' E 018°59'2 3.2
2017-Oct-10 09:30N 69°39' E 018°58'611.8
2017-Oct-10 09:00N 69°34' E 018°48'611.8
2017-Oct-10 08:30N 69°32' E 018°32'612.1
2017-Oct-10 08:00N 69°30' E 018°16'610.9
2017-Oct-10 07:30N 69°25' E 018°07'611.9
2017-Oct-10 07:00N 69°20' E 018°02'611.3
2017-Oct-10 06:30N 69°14' E 017°58'4 9.0
2017-Oct-10 06:00N 69°10' E 017°56'612.0
2017-Oct-10 05:30N 69°08' E 017°40'611.7
2017-Oct-10 05:00N 69°05' E 017°25'611.6
2017-Oct-10 04:30N 69°01' E 017°16'611.6
2017-Oct-10 04:00N 68°56' E 017°05'611.9
2017-Oct-10 03:30N 68°53' E 016°52'611.6
2017-Oct-10 03:00N 68°50' E 016°38'3 6.3
2017-Oct-10 02:30N 68°47' E 016°33'0 0.0
2017-Oct-10 02:00N 68°47' E 016°33'0 0.0
2017-Oct-10 01:30N 68°47' E 016°33'0 0.0
2017-Oct-10 01:00N 68°47' E 016°33'0 0.0
2017-Oct-10 00:31N 68°47' E 016°33'0 0.0
2017-Oct-10 00:00N 68°47' E 016°33'0 0.0
2017-Oct-09 23:30N 68°47' E 016°33'0 0.0
2017-Oct-09 23:00N 68°47' E 016°33'0 0.0
2017-Oct-09 22:30N 68°47' E 016°33'0 0.0
2017-Oct-09 22:00N 68°47' E 016°33'0 0.0
2017-Oct-09 21:31N 68°47' E 016°33'0 0.0
2017-Oct-09 21:00N 68°47' E 016°33'0 0.0
2017-Oct-09 20:30N 68°47' E 016°33'0 0.0
2017-Oct-09 20:01N 68°47' E 016°33'0 0.0
2017-Oct-09 19:31N 68°47' E 016°33'0 0.0
2017-Oct-09 19:00N 68°47' E 016°33'0 0.0
2017-Oct-09 18:30N 68°47' E 016°33'0 0.0
2017-Oct-09 18:00N 68°47' E 016°33'0 0.0
2017-Oct-09 17:31N 68°47' E 016°33'0 0.0
2017-Oct-09 17:00N 68°47' E 016°33'0 0.0
2017-Oct-09 16:30N 68°47' E 016°33'0 0.0
2017-Oct-09 16:00N 68°47' E 016°33'0 0.0
2017-Oct-09 15:31N 68°47' E 016°33'0 0.0
2017-Oct-09 15:00N 68°47' E 016°33'0 0.0
2017-Oct-09 14:30N 68°47' E 016°33'0 0.0
2017-Oct-09 14:00N 68°47' E 016°33'0 0.0
2017-Oct-09 13:31N 68°47' E 016°33'0 0.0
2017-Oct-09 13:00N 68°47' E 016°33'0 0.0
2017-Oct-09 12:30N 68°47' E 016°33'0 0.0
2017-Oct-09 12:01N 68°47' E 016°33'0 0.0
2017-Oct-09 11:31N 68°47' E 016°33'0 0.0
2017-Oct-09 11:00N 68°47' E 016°33'2 3.3
2017-Oct-09 10:30N 68°49' E 016°35'1 1.6
2017-Oct-09 10:00N 68°48' E 016°33'0 0.0
2017-Oct-09 09:30N 68°48' E 016°33'0 0.0
2017-Oct-09 09:00N 68°48' E 016°33'0 0.0
2017-Oct-09 08:30N 68°48' E 016°33'0 0.0
2017-Oct-09 08:00N 68°48' E 016°33'0 0.0
2017-Oct-09 07:30N 68°48' E 016°33'0 0.0
2017-Oct-09 07:00N 68°48' E 016°33'0 0.0
2017-Oct-09 06:31N 68°48' E 016°33'0 0.0
2017-Oct-09 06:00N 68°48' E 016°33'0 0.0
2017-Oct-09 05:30N 68°48' E 016°33'0 0.0
2017-Oct-09 05:00N 68°48' E 016°33'0 0.0
2017-Oct-09 04:31N 68°48' E 016°33'0 0.0
2017-Oct-09 04:00N 68°48' E 016°33'0 0.0
2017-Oct-09 03:30N 68°48' E 016°33'0 0.0
2017-Oct-09 03:00N 68°48' E 016°33'0 0.0
2017-Oct-09 02:30N 68°48' E 016°33'0 0.0
2017-Oct-09 02:00N 68°48' E 016°33'0 0.0
2017-Oct-09 01:30N 68°48' E 016°33'0 0.0
2017-Oct-09 01:01N 68°48' E 016°33'0 0.0
2017-Oct-09 00:31N 68°48' E 016°33'0 0.0
2017-Oct-09 00:00N 68°48' E 016°33'0 0.0
2017-Oct-08 23:30N 68°48' E 016°33'0 0.0
2017-Oct-08 23:00N 68°48' E 016°33'0 0.0
2017-Oct-08 22:30N 68°48' E 016°33'0 0.0
2017-Oct-08 22:00N 68°48' E 016°33'0 0.0
2017-Oct-08 21:30N 68°48' E 016°33'0 0.0
2017-Oct-08 21:00N 68°48' E 016°33'0 0.0
2017-Oct-08 20:30N 68°48' E 016°33'0 0.0
2017-Oct-08 20:00N 68°48' E 016°33'0 0.0
2017-Oct-08 19:31N 68°48' E 016°33'0 0.0
2017-Oct-08 19:00N 68°48' E 016°33'0 0.0
2017-Oct-08 18:30N 68°48' E 016°33'0 0.0
2017-Oct-08 18:00N 68°48' E 016°33'0 0.0
2017-Oct-08 17:30N 68°48' E 016°33'0 0.0
2017-Oct-08 17:00N 68°48' E 016°33'0 0.0
2017-Oct-08 16:30N 68°48' E 016°33'0 0.0
2017-Oct-08 16:00N 68°48' E 016°33'0 0.0
2017-Oct-08 15:31N 68°48' E 016°33'0 0.0
2017-Oct-08 15:00N 68°48' E 016°33'0 0.0
2017-Oct-08 14:30N 68°48' E 016°33'0 0.0
2017-Oct-08 14:00N 68°48' E 016°33'0 0.0
2017-Oct-08 13:30N 68°48' E 016°33'0 0.0
2017-Oct-08 13:00N 68°48' E 016°33'0 0.0
2017-Oct-08 12:30N 68°48' E 016°33'0 0.0
2017-Oct-08 12:01N 68°48' E 016°33'0 0.0
2017-Oct-08 11:30N 68°48' E 016°33'0 0.0
2017-Oct-08 11:00N 68°48' E 016°33'0 0.0
2017-Oct-08 10:30N 68°48' E 016°33'0 0.0
2017-Oct-08 10:00N 68°48' E 016°33'0 0.0
2017-Oct-08 09:30N 68°48' E 016°33'0 0.0
2017-Oct-08 09:00N 68°48' E 016°33'0 0.0
2017-Oct-08 08:30N 68°48' E 016°33'0 0.0
2017-Oct-08 08:00N 68°48' E 016°33'0 0.0
2017-Oct-08 07:30N 68°48' E 016°33'0 0.0
2017-Oct-08 07:00N 68°48' E 016°33'0 0.0
2017-Oct-08 06:30N 68°48' E 016°33'0 0.0
2017-Oct-08 06:00N 68°48' E 016°33'0 0.0
2017-Oct-08 05:30N 68°48' E 016°33'0 0.0
2017-Oct-08 05:00N 68°48' E 016°33'0 0.0
2017-Oct-08 04:30N 68°48' E 016°33'0 0.0
2017-Oct-08 04:00N 68°48' E 016°33'0 0.0
2017-Oct-08 03:30N 68°48' E 016°33'0 0.0
2017-Oct-08 03:00N 68°48' E 016°33'0 0.0
2017-Oct-08 02:30N 68°48' E 016°33'0 0.0
2017-Oct-08 02:00N 68°48' E 016°33'0 0.0
2017-Oct-08 01:30N 68°48' E 016°33'0 0.0
2017-Oct-08 01:00N 68°48' E 016°33'0 0.0
2017-Oct-08 00:30N 68°48' E 016°33'0 0.0
2017-Oct-08 00:00N 68°48' E 016°33'0 0.0
2017-Oct-07 23:30N 68°48' E 016°33'0 0.0
2017-Oct-07 23:01N 68°48' E 016°33'0 0.0
2017-Oct-07 22:30N 68°48' E 016°33'0 0.0
2017-Oct-07 22:00N 68°48' E 016°33'0 0.0
2017-Oct-07 21:30N 68°48' E 016°33'0 0.0
2017-Oct-07 21:00N 68°48' E 016°33'0 0.0
2017-Oct-07 20:30N 68°48' E 016°33'0 0.0
2017-Oct-07 20:00N 68°48' E 016°33'0 0.0
2017-Oct-07 19:30N 68°48' E 016°33'0 0.0
2017-Oct-07 19:00N 68°48' E 016°33'0 0.0
2017-Oct-07 18:29N 68°48' E 016°33'0 0.0
2017-Oct-07 18:00N 68°48' E 016°33'0 0.0
2017-Oct-07 17:30N 68°48' E 016°33'0 0.0
2017-Oct-07 17:00N 68°48' E 016°33'0 0.0
2017-Oct-07 16:30N 68°48' E 016°33'0 0.0
2017-Oct-07 16:00N 68°48' E 016°33'0 0.0
2017-Oct-07 15:30N 68°48' E 016°33'0 0.0
2017-Oct-07 15:01N 68°48' E 016°33'0 0.0
2017-Oct-07 14:30N 68°48' E 016°33'0 0.0
2017-Oct-07 14:00N 68°48' E 016°33'0 0.0
2017-Oct-07 13:30N 68°48' E 016°33'0 0.0
2017-Oct-07 13:00N 68°48' E 016°33'0 0.0
2017-Oct-07 12:30N 68°48' E 016°33'0 0.0
2017-Oct-07 12:00N 68°48' E 016°33'0 0.0
2017-Oct-07 11:30N 68°48' E 016°33'0 0.0
2017-Oct-07 11:01N 68°48' E 016°33'0 0.0
2017-Oct-07 10:30N 68°48' E 016°33'0 0.0
2017-Oct-07 10:00N 68°48' E 016°33'0 0.0
2017-Oct-07 09:30N 68°48' E 016°33'0 0.0
2017-Oct-07 09:00N 68°48' E 016°33'0 0.0
2017-Oct-07 08:30N 68°48' E 016°33'0 0.0
2017-Oct-07 08:01N 68°48' E 016°33'0 0.0
2017-Oct-07 07:31N 68°48' E 016°33'0 0.0
2017-Oct-07 07:00N 68°48' E 016°33'0 0.0
2017-Oct-07 06:31N 68°48' E 016°33'0 0.0
2017-Oct-07 06:00N 68°48' E 016°33'0 0.0
2017-Oct-07 05:30N 68°48' E 016°33'0 0.0
2017-Oct-07 05:00N 68°48' E 016°33'0 0.0
2017-Oct-07 04:30N 68°48' E 016°33'0 0.0
2017-Oct-07 04:00N 68°48' E 016°33'0 0.0
2017-Oct-07 03:30N 68°48' E 016°33'0 0.0
2017-Oct-07 03:00N 68°48' E 016°33'0 0.0
2017-Oct-07 02:30N 68°48' E 016°33'0 0.0
2017-Oct-07 02:00N 68°48' E 016°33'0 0.0
2017-Oct-07 01:30N 68°48' E 016°33'0 0.0
2017-Oct-07 01:00N 68°48' E 016°33'0 0.0
2017-Oct-07 00:30N 68°48' E 016°33'0 0.0
2017-Oct-07 00:00N 68°48' E 016°33'0 0.0
2017-Oct-06 23:30N 68°48' E 016°33'0 0.0
2017-Oct-06 23:00N 68°48' E 016°33'0 0.0
2017-Oct-06 22:30N 68°48' E 016°33'0 0.0
2017-Oct-06 22:00N 68°48' E 016°33'0 0.0
2017-Oct-06 21:30N 68°48' E 016°33'0 0.0
2017-Oct-06 21:00N 68°48' E 016°33'0 0.0
2017-Oct-06 20:30N 68°48' E 016°33'0 0.0
2017-Oct-06 20:01N 68°48' E 016°33'0 0.0
2017-Oct-06 19:30N 68°48' E 016°33'0 0.0
2017-Oct-06 19:00N 68°48' E 016°33'0 0.0
2017-Oct-06 18:30N 68°48' E 016°33'0 0.0
2017-Oct-06 18:00N 68°48' E 016°33'0 0.0
2017-Oct-06 17:30N 68°48' E 016°33'0 0.0
2017-Oct-06 17:00N 68°48' E 016°33'0 0.0
2017-Oct-06 16:30N 68°48' E 016°33'0 0.0
2017-Oct-06 16:00N 68°48' E 016°33'0 0.0
2017-Oct-06 15:30N 68°48' E 016°33'0 0.0
2017-Oct-06 15:00N 68°48' E 016°33'0 0.0
2017-Oct-06 14:30N 68°48' E 016°33'0 0.0
2017-Oct-06 14:00N 68°48' E 016°33'0 0.0
2017-Oct-06 13:31N 68°48' E 016°33'0 0.0
2017-Oct-06 13:00N 68°48' E 016°33'0 0.0
2017-Oct-06 12:31N 68°48' E 016°33'0 0.0
2017-Oct-06 12:00N 68°48' E 016°33'0 0.0
2017-Oct-06 11:30N 68°48' E 016°33'0 0.0
2017-Oct-06 11:00N 68°48' E 016°33'0 0.0
2017-Oct-06 10:29N 68°48' E 016°33'0 0.0
2017-Oct-06 10:00N 68°48' E 016°33'0 0.0
2017-Oct-06 09:30N 68°48' E 016°33'0 0.0
2017-Oct-06 09:00N 68°48' E 016°33'0 0.0
2017-Oct-06 08:30N 68°48' E 016°33'0 0.0
2017-Oct-06 08:00N 68°48' E 016°33'0 0.0
2017-Oct-06 07:30N 68°48' E 016°33'0 0.0
2017-Oct-06 07:01N 68°48' E 016°33'0 0.0
2017-Oct-06 06:30N 68°48' E 016°33'0 0.0
2017-Oct-06 06:00N 68°48' E 016°33'0 0.0
2017-Oct-06 05:30N 68°48' E 016°33'0 0.0
2017-Oct-06 05:00N 68°48' E 016°33'0 0.0
2017-Oct-06 04:30N 68°48' E 016°33'0 0.0
2017-Oct-06 04:00N 68°48' E 016°33'0 0.0
2017-Oct-06 03:30N 68°48' E 016°33'0 0.0
2017-Oct-06 03:00N 68°48' E 016°33'0 0.0
2017-Oct-06 02:30N 68°48' E 016°33'0 0.0
2017-Oct-06 02:00N 68°48' E 016°33'0 0.0
2017-Oct-06 01:30N 68°48' E 016°33'0 0.0
2017-Oct-06 01:00N 68°48' E 016°33'0 0.0
2017-Oct-06 00:31N 68°48' E 016°33'0 0.0
2017-Oct-06 00:00N 68°48' E 016°33'0 0.0
2017-Oct-05 23:30N 68°48' E 016°33'0 0.0
2017-Oct-05 23:00N 68°48' E 016°33'0 0.0
2017-Oct-05 22:30N 68°48' E 016°33'0 0.0
2017-Oct-05 22:00N 68°48' E 016°33'0 0.0
2017-Oct-05 21:30N 68°48' E 016°33'0 0.0
2017-Oct-05 21:01N 68°48' E 016°33'0 0.0
2017-Oct-05 20:30N 68°48' E 016°33'0 0.0
2017-Oct-05 20:00N 68°48' E 016°33'0 0.0
2017-Oct-05 19:31N 68°48' E 016°33'0 0.0
2017-Oct-05 19:01N 68°48' E 016°33'0 0.0
2017-Oct-05 18:30N 68°48' E 016°33'0 0.0
2017-Oct-05 18:00N 68°48' E 016°33'0 0.0
2017-Oct-05 17:30N 68°48' E 016°33'0 0.0
2017-Oct-05 17:00N 68°48' E 016°33'0 0.3
2017-Oct-05 15:30N 68°48' E 016°33'0 0.9
2017-Oct-05 15:00N 68°48' E 016°33'0 0.0
2017-Oct-05 14:30N 68°48' E 016°33'0 0.0
2017-Oct-05 14:00N 68°48' E 016°33'0 0.0
2017-Oct-05 13:30N 68°48' E 016°33'0 0.0
2017-Oct-05 13:00N 68°48' E 016°33'0 0.0
2017-Oct-05 12:30N 68°48' E 016°33'0 0.0
2017-Oct-05 12:00N 68°48' E 016°33'0 0.0
2017-Oct-05 11:30N 68°48' E 016°33'0 0.0
2017-Oct-05 11:00N 68°48' E 016°33'0 0.0
2017-Oct-05 10:30N 68°48' E 016°33'0 0.0
2017-Oct-05 10:00N 68°48' E 016°33'0 0.0
2017-Oct-05 09:31N 68°48' E 016°33'0 0.0
2017-Oct-05 09:00N 68°48' E 016°33'0 0.0
2017-Oct-05 08:30N 68°48' E 016°33'0 0.0
2017-Oct-05 08:00N 68°48' E 016°33'0 0.0
2017-Oct-05 07:30N 68°48' E 016°33'0 0.0
2017-Oct-05 07:00N 68°48' E 016°33'0 0.0
2017-Oct-05 06:30N 68°48' E 016°33'0 0.0
2017-Oct-05 06:00N 68°48' E 016°33'0 0.0
2017-Oct-05 05:30N 68°48' E 016°33'0 0.0
2017-Oct-05 05:00N 68°48' E 016°33'0 0.0
2017-Oct-05 04:31N 68°48' E 016°33'0 0.0
2017-Oct-05 04:00N 68°48' E 016°33'0 0.0
2017-Oct-05 03:31N 68°48' E 016°33'0 0.0
2017-Oct-05 03:00N 68°48' E 016°33'0 0.0
2017-Oct-05 02:30N 68°48' E 016°33'0 0.0
2017-Oct-05 02:01N 68°48' E 016°33'0 0.0
2017-Oct-05 01:31N 68°48' E 016°33'0 0.0
2017-Oct-05 01:01N 68°48' E 016°33'0 0.0
2017-Oct-05 00:31N 68°48' E 016°33'0 0.0
2017-Oct-05 00:00N 68°48' E 016°33'0 0.0
2017-Oct-04 23:30N 68°48' E 016°33'0 0.0
2017-Oct-04 23:00N 68°48' E 016°33'0 0.0
2017-Oct-04 22:30N 68°48' E 016°33'0 0.0
2017-Oct-04 21:59N 68°48' E 016°33'0 0.0
2017-Oct-04 21:31N 68°48' E 016°33'0 0.0
2017-Oct-04 21:01N 68°48' E 016°33'0 0.0
2017-Oct-04 20:30N 68°48' E 016°33'0 0.0
2017-Oct-04 20:01N 68°48' E 016°33'0 0.0
2017-Oct-04 19:30N 68°48' E 016°33'0 0.0
2017-Oct-04 19:00N 68°48' E 016°33'0 0.0
2017-Oct-04 18:31N 68°48' E 016°33'0 0.0
2017-Oct-04 18:00N 68°48' E 016°33'0 0.0
2017-Oct-04 17:30N 68°48' E 016°33'0 0.0
2017-Oct-04 17:00N 68°48' E 016°33'0 0.0
2017-Oct-04 16:30N 68°48' E 016°33'0 0.0
2017-Oct-04 16:00N 68°48' E 016°33'0 0.0
2017-Oct-04 15:30N 68°48' E 016°33'0 0.0
2017-Oct-04 15:00N 68°48' E 016°33'0 0.0
2017-Oct-04 14:30N 68°48' E 016°33'0 0.0
2017-Oct-04 14:00N 68°48' E 016°33'0 0.0
2017-Oct-04 13:30N 68°48' E 016°33'0 0.0
2017-Oct-04 13:00N 68°48' E 016°33'0 0.0
2017-Oct-04 12:31N 68°48' E 016°33'0 0.0
2017-Oct-04 12:00N 68°48' E 016°33'0 0.0
2017-Oct-04 11:30N 68°48' E 016°33'0 0.0
2017-Oct-04 11:01N 68°48' E 016°33'0 0.0
2017-Oct-04 10:30N 68°48' E 016°33'0 0.0
2017-Oct-04 10:00N 68°48' E 016°33'0 0.0
2017-Oct-04 09:30N 68°48' E 016°33'0 0.0
2017-Oct-04 09:00N 68°48' E 016°33'0 0.0
2017-Oct-04 08:30N 68°48' E 016°33'0 0.0
2017-Oct-04 08:00N 68°48' E 016°33'0 0.0
2017-Oct-04 07:30N 68°48' E 016°33'0 0.0
2017-Oct-04 07:00N 68°48' E 016°33'0 0.0
2017-Oct-04 06:31N 68°48' E 016°33'0 0.0
2017-Oct-04 06:00N 68°48' E 016°33'0 0.0
2017-Oct-04 05:30N 68°48' E 016°33'0 0.0
2017-Oct-04 04:59N 68°48' E 016°33'0 0.0
2017-Oct-04 04:30N 68°48' E 016°33'0 0.0
2017-Oct-04 04:00N 68°48' E 016°33'0 0.0
2017-Oct-04 03:30N 68°48' E 016°33'0 0.0
2017-Oct-04 03:01N 68°48' E 016°33'0 0.0
2017-Oct-04 02:30N 68°48' E 016°33'0 0.0
2017-Oct-04 02:00N 68°48' E 016°33'0 0.0
2017-Oct-04 01:30N 68°48' E 016°33'0 0.0
2017-Oct-04 01:01N 68°48' E 016°33'0 0.0
2017-Oct-04 00:31N 68°48' E 016°33'0 0.0
2017-Oct-04 00:00N 68°48' E 016°33'0 0.0
2017-Oct-03 23:30N 68°48' E 016°33'0 0.0
2017-Oct-03 23:00N 68°48' E 016°33'0 0.0
2017-Oct-03 22:30N 68°48' E 016°33'0 0.0
2017-Oct-03 22:00N 68°48' E 016°33'0 0.0
2017-Oct-03 21:30N 68°48' E 016°33'0 0.0
2017-Oct-03 21:00N 68°48' E 016°33'0 0.0
2017-Oct-03 20:30N 68°48' E 016°33'0 0.0
2017-Oct-03 20:00N 68°48' E 016°33'0 0.0
2017-Oct-03 19:30N 68°48' E 016°33'0 0.0
2017-Oct-03 19:00N 68°48' E 016°33'0 0.0
2017-Oct-03 18:30N 68°48' E 016°33'0 0.0
2017-Oct-03 18:00N 68°48' E 016°33'0 0.0
2017-Oct-03 17:30N 68°48' E 016°33'0 0.0
2017-Oct-03 17:00N 68°48' E 016°33'0 0.0
2017-Oct-03 16:30N 68°48' E 016°33'0 0.0
2017-Oct-03 16:00N 68°48' E 016°33'0 0.0
2017-Oct-03 15:30N 68°48' E 016°33'0 0.0
2017-Oct-03 15:00N 68°48' E 016°33'0 0.0
2017-Oct-03 14:01N 68°48' E 016°33'0 0.0
2017-Oct-03 13:31N 68°48' E 016°33'0 0.0
2017-Oct-03 13:01N 68°48' E 016°33'0 0.0
2017-Oct-03 12:30N 68°48' E 016°33'0 0.0
2017-Oct-03 12:00N 68°48' E 016°33'0 0.0
2017-Oct-03 11:30N 68°48' E 016°33'0 0.0
2017-Oct-03 11:00N 68°48' E 016°33'0 0.0
2017-Oct-03 10:30N 68°48' E 016°33'0 0.0
2017-Oct-03 10:00N 68°48' E 016°33'0 0.0
2017-Oct-03 09:30N 68°48' E 016°33'0 0.0
2017-Oct-03 09:00N 68°48' E 016°33'0 0.0
2017-Oct-03 08:30N 68°48' E 016°33'0 0.0
2017-Oct-03 08:01N 68°48' E 016°33'0 0.0
2017-Oct-03 07:30N 68°48' E 016°33'0 0.0
2017-Oct-03 07:00N 68°48' E 016°33'0 0.0
2017-Oct-03 06:30N 68°48' E 016°33'0 0.0
2017-Oct-03 06:00N 68°48' E 016°33'0 0.0
2017-Oct-03 05:30N 68°48' E 016°33'0 0.0
2017-Oct-03 05:00N 68°48' E 016°33'0 0.0
2017-Oct-03 04:30N 68°48' E 016°33'0 0.0
2017-Oct-03 04:00N 68°48' E 016°33'0 0.0
2017-Oct-03 03:30N 68°48' E 016°33'0 0.0
2017-Oct-03 03:00N 68°48' E 016°33'0 0.0
2017-Oct-03 02:30N 68°48' E 016°33'0 0.0
2017-Oct-03 02:00N 68°48' E 016°33'0 0.0
2017-Oct-03 01:31N 68°48' E 016°33'0 0.0
2017-Oct-03 01:00N 68°48' E 016°33'0 0.0
2017-Oct-03 00:30N 68°48' E 016°33'0 0.0
2017-Oct-03 00:00N 68°48' E 016°33'0 0.0
2017-Oct-02 23:30N 68°48' E 016°33'0 0.0
2017-Oct-02 23:01N 68°48' E 016°33'0 0.0
2017-Oct-02 22:30N 68°48' E 016°33'0 0.0
2017-Oct-02 22:01N 68°48' E 016°33'0 0.0
2017-Oct-02 21:30N 68°48' E 016°33'0 0.0
2017-Oct-02 21:00N 68°48' E 016°33'0 0.0
2017-Oct-02 20:30N 68°48' E 016°33'0 0.0
2017-Oct-02 20:01N 68°48' E 016°33'0 0.0
2017-Oct-02 19:31N 68°48' E 016°33'0 0.0
2017-Oct-02 19:00N 68°48' E 016°33'0 0.0
2017-Oct-02 18:31N 68°48' E 016°33'0 0.0
2017-Oct-02 18:00N 68°48' E 016°33'0 0.0
2017-Oct-02 17:30N 68°48' E 016°33'0 0.0
2017-Oct-02 17:00N 68°48' E 016°33'0 0.0
2017-Oct-02 16:30N 68°48' E 016°33'0 0.0
2017-Oct-02 16:00N 68°48' E 016°33'0 0.0
2017-Oct-02 15:30N 68°48' E 016°33'0 0.0
2017-Oct-02 15:00N 68°48' E 016°33'0 0.0
2017-Oct-02 14:31N 68°48' E 016°33'0 0.0
2017-Oct-02 14:00N 68°48' E 016°33'0 0.0
2017-Oct-02 13:31N 68°48' E 016°33'0 0.0
2017-Oct-02 13:00N 68°48' E 016°33'0 0.0
2017-Oct-02 12:31N 68°48' E 016°33'0 0.0
2017-Oct-02 12:00N 68°48' E 016°33'0 0.0
2017-Oct-02 11:30N 68°48' E 016°33'0 0.0
2017-Oct-02 11:00N 68°48' E 016°33'0 0.0
2017-Oct-02 10:30N 68°48' E 016°33'0 0.0
2017-Oct-02 10:00N 68°48' E 016°33'0 0.0
2017-Oct-02 09:30N 68°48' E 016°33'0 0.0
2017-Oct-02 09:00N 68°48' E 016°33'0 0.0
2017-Oct-02 08:30N 68°48' E 016°33'0 0.0
2017-Oct-02 08:00N 68°48' E 016°33'0 0.0
2017-Oct-02 07:30N 68°48' E 016°33'0 0.0
2017-Oct-02 07:00N 68°48' E 016°33'0 0.0
2017-Oct-02 06:31N 68°48' E 016°33'0 0.0
2017-Oct-02 06:00N 68°48' E 016°33'0 0.0
2017-Oct-02 05:30N 68°48' E 016°33'0 0.0
2017-Oct-02 05:00N 68°48' E 016°33'0 0.0
2017-Oct-02 04:30N 68°48' E 016°33'0 0.0
2017-Oct-02 04:00N 68°48' E 016°33'0 0.0
2017-Oct-02 03:31N 68°48' E 016°33'0 0.0
2017-Oct-02 03:00N 68°48' E 016°33'0 0.0
2017-Oct-02 02:30N 68°48' E 016°33'0 0.0
2017-Oct-02 02:00N 68°48' E 016°33'0 0.0
2017-Oct-02 01:30N 68°48' E 016°33'0 0.0
2017-Oct-02 01:00N 68°48' E 016°33'0 0.0
2017-Oct-02 00:30N 68°48' E 016°33'0 0.0
2017-Oct-02 00:00N 68°48' E 016°33'0 0.0
2017-Oct-01 23:30N 68°48' E 016°33'0 0.0
2017-Oct-01 23:00N 68°48' E 016°33'0 0.0
2017-Oct-01 22:30N 68°48' E 016°33'0 0.0
2017-Oct-01 22:00N 68°48' E 016°33'0 0.0
2017-Oct-01 21:30N 68°48' E 016°33'0 0.0
2017-Oct-01 21:00N 68°48' E 016°33'0 0.0
2017-Oct-01 20:30N 68°48' E 016°33'0 0.0
2017-Oct-01 20:01N 68°48' E 016°33'0 0.0
2017-Oct-01 19:30N 68°48' E 016°33'0 0.0
2017-Oct-01 19:00N 68°48' E 016°33'0 0.0
2017-Oct-01 18:29N 68°48' E 016°33'0 0.0
2017-Oct-01 18:00N 68°48' E 016°33'0 0.0
2017-Oct-01 17:30N 68°48' E 016°33'0 0.0
2017-Oct-01 17:00N 68°48' E 016°33'0 0.0
2017-Oct-01 16:30N 68°48' E 016°33'0 0.0
2017-Oct-01 16:00N 68°48' E 016°33'0 0.0
2017-Oct-01 15:30N 68°48' E 016°33'0 0.0
2017-Oct-01 15:00N 68°48' E 016°33'0 0.0
2017-Oct-01 14:30N 68°48' E 016°33'0 0.0
2017-Oct-01 14:00N 68°48' E 016°33'0 0.0
2017-Oct-01 13:31N 68°48' E 016°33'0 0.0
2017-Oct-01 13:00N 68°48' E 016°33'0 0.0
2017-Oct-01 12:30N 68°48' E 016°33'0 0.0
2017-Oct-01 12:01N 68°48' E 016°33'0 0.0
2017-Oct-01 11:31N 68°48' E 016°33'0 0.0
2017-Oct-01 11:01N 68°48' E 016°33'0 0.0
2017-Oct-01 10:30N 68°48' E 016°33'0 0.0
2017-Oct-01 10:00N 68°48' E 016°33'0 0.0
2017-Oct-01 09:30N 68°48' E 016°33'0 0.0
2017-Oct-01 09:01N 68°48' E 016°33'0 0.0
2017-Oct-01 08:30N 68°48' E 016°33'0 0.0
2017-Oct-01 08:00N 68°48' E 016°33'0 0.0
2017-Oct-01 07:31N 68°48' E 016°33'0 0.0
2017-Oct-01 06:59N 68°48' E 016°33'0 0.0
2017-Oct-01 06:30N 68°48' E 016°33'0 0.0
2017-Oct-01 06:00N 68°48' E 016°33'0 0.0
2017-Oct-01 05:30N 68°48' E 016°33'0 0.0
2017-Oct-01 04:59N 68°48' E 016°33'0 0.0
2017-Oct-01 04:30N 68°48' E 016°33'0 0.0
2017-Oct-01 04:00N 68°48' E 016°33'0 0.0
2017-Oct-01 03:30N 68°48' E 016°33'0 0.0
2017-Oct-01 03:00N 68°48' E 016°33'  
Track history (hours):
 
Tides and Currents Weather Stations Pressure Air Temp Water Temp Dewpoint Dewpoint Depression Visibility Wind Speed Wind Dir Waves Ship Positions

Ole-arvid Nergaard

Last reported at 2017-Oct-11 00:00 UTC. Time now 2017-Oct-19 18:15 UTC.
Position N 69°40' E 018°59'.
Warning: this ship's position is 8 days out of date.

Length 55 m; draft 7.2 m.

Type: Fishing. MMSI: 259656000.

Date/timePositionNaut miles runAvg speedWind from/ knotsBaromVisibWave heightAir tempDewpointWater temp
2017-Oct-11 00:00N 69°40' E 018°59'0 0.0
2017-Oct-10 23:30N 69°40' E 018°59'0 0.0
2017-Oct-10 23:00N 69°40' E 018°59'0 0.0
2017-Oct-10 22:31N 69°40' E 018°59'0 0.0
2017-Oct-10 22:00N 69°40' E 018°59'0 0.0
2017-Oct-10 21:30N 69°40' E 018°59'0 0.0
2017-Oct-10 21:00N 69°40' E 018°59'0 0.0
2017-Oct-10 20:30N 69°40' E 018°59'0 0.0
2017-Oct-10 20:01N 69°40' E 018°59'0 0.0
2017-Oct-10 19:30N 69°40' E 018°59'0 0.0
2017-Oct-10 19:01N 69°40' E 018°59'0 0.0
2017-Oct-10 18:30N 69°40' E 018°59'0 0.0
2017-Oct-10 18:00N 69°40' E 018°59'0 0.0
2017-Oct-10 17:30N 69°40' E 018°59'0 0.0
2017-Oct-10 17:01N 69°40' E 018°59'0 0.0
2017-Oct-10 16:30N 69°40' E 018°59'1 1.8
2017-Oct-10 15:59N 69°40' E 018°58'0 0.0
2017-Oct-10 15:30N 69°40' E 018°58'0 0.0
2017-Oct-10 15:00N 69°40' E 018°58'0 0.0
2017-Oct-10 14:00N 69°40' E 018°58'1 1.5
2017-Oct-10 13:30N 69°40' E 018°59'0 0.5
2017-Oct-10 13:00N 69°40' E 018°59'0 0.0
2017-Oct-10 12:30N 69°40' E 018°59'0 0.0
2017-Oct-10 12:00N 69°40' E 018°59'0 0.0
2017-Oct-10 11:30N 69°40' E 018°59'0 0.0
2017-Oct-10 11:01N 69°40' E 018°59'0 0.0
2017-Oct-10 10:30N 69°40' E 018°59'0 0.0
2017-Oct-10 10:00N 69°40' E 018°59'2 3.2
2017-Oct-10 09:30N 69°39' E 018°58'611.8
2017-Oct-10 09:00N 69°34' E 018°48'611.8
2017-Oct-10 08:30N 69°32' E 018°32'612.1
2017-Oct-10 08:00N 69°30' E 018°16'610.9
2017-Oct-10 07:30N 69°25' E 018°07'611.9
2017-Oct-10 07:00N 69°20' E 018°02'611.3
2017-Oct-10 06:30N 69°14' E 017°58'4 9.0
2017-Oct-10 06:00N 69°10' E 017°56'612.0
2017-Oct-10 05:30N 69°08' E 017°40'611.7
2017-Oct-10 05:00N 69°05' E 017°25'611.6
2017-Oct-10 04:30N 69°01' E 017°16'611.6
2017-Oct-10 04:00N 68°56' E 017°05'611.9
2017-Oct-10 03:30N 68°53' E 016°52'611.6
2017-Oct-10 03:00N 68°50' E 016°38'3 6.3
2017-Oct-10 02:30N 68°47' E 016°33'0 0.0
2017-Oct-10 02:00N 68°47' E 016°33'0 0.0
2017-Oct-10 01:30N 68°47' E 016°33'0 0.0
2017-Oct-10 01:00N 68°47' E 016°33'0 0.0
2017-Oct-10 00:31N 68°47' E 016°33'0 0.0
2017-Oct-10 00:00N 68°47' E 016°33'0 0.0
2017-Oct-09 23:30N 68°47' E 016°33'0 0.0
2017-Oct-09 23:00N 68°47' E 016°33'0 0.0
2017-Oct-09 22:30N 68°47' E 016°33'0 0.0
2017-Oct-09 22:00N 68°47' E 016°33'0 0.0
2017-Oct-09 21:31N 68°47' E 016°33'0 0.0
2017-Oct-09 21:00N 68°47' E 016°33'0 0.0
2017-Oct-09 20:30N 68°47' E 016°33'0 0.0
2017-Oct-09 20:01N 68°47' E 016°33'0 0.0
2017-Oct-09 19:31N 68°47' E 016°33'0 0.0
2017-Oct-09 19:00N 68°47' E 016°33'0 0.0
2017-Oct-09 18:30N 68°47' E 016°33'0 0.0
2017-Oct-09 18:00N 68°47' E 016°33'0 0.0
2017-Oct-09 17:31N 68°47' E 016°33'0 0.0
2017-Oct-09 17:00N 68°47' E 016°33'0 0.0
2017-Oct-09 16:30N 68°47' E 016°33'0 0.0
2017-Oct-09 16:00N 68°47' E 016°33'0 0.0
2017-Oct-09 15:31N 68°47' E 016°33'0 0.0
2017-Oct-09 15:00N 68°47' E 016°33'0 0.0
2017-Oct-09 14:30N 68°47' E 016°33'0 0.0
2017-Oct-09 14:00N 68°47' E 016°33'0 0.0
2017-Oct-09 13:31N 68°47' E 016°33'0 0.0
2017-Oct-09 13:00N 68°47' E 016°33'0 0.0
2017-Oct-09 12:30N 68°47' E 016°33'0 0.0
2017-Oct-09 12:01N 68°47' E 016°33'0 0.0
2017-Oct-09 11:31N 68°47' E 016°33'0 0.0
2017-Oct-09 11:00N 68°47' E 016°33'2 3.3
2017-Oct-09 10:30N 68°49' E 016°35'1 1.6
2017-Oct-09 10:00N 68°48' E 016°33'0 0.0
2017-Oct-09 09:30N 68°48' E 016°33'0 0.0
2017-Oct-09 09:00N 68°48' E 016°33'0 0.0
2017-Oct-09 08:30N 68°48' E 016°33'0 0.0
2017-Oct-09 08:00N 68°48' E 016°33'0 0.0
2017-Oct-09 07:30N 68°48' E 016°33'0 0.0
2017-Oct-09 07:00N 68°48' E 016°33'0 0.0
2017-Oct-09 06:31N 68°48' E 016°33'0 0.0
2017-Oct-09 06:00N 68°48' E 016°33'0 0.0
2017-Oct-09 05:30N 68°48' E 016°33'0 0.0
2017-Oct-09 05:00N 68°48' E 016°33'0 0.0
2017-Oct-09 04:31N 68°48' E 016°33'0 0.0
2017-Oct-09 04:00N 68°48' E 016°33'0 0.0
2017-Oct-09 03:30N 68°48' E 016°33'0 0.0
2017-Oct-09 03:00N 68°48' E 016°33'0 0.0
2017-Oct-09 02:30N 68°48' E 016°33'0 0.0
2017-Oct-09 02:00N 68°48' E 016°33'0 0.0
2017-Oct-09 01:30N 68°48' E 016°33'0 0.0
2017-Oct-09 01:01N 68°48' E 016°33'0 0.0
2017-Oct-09 00:31N 68°48' E 016°33'0 0.0
2017-Oct-09 00:00N 68°48' E 016°33'0 0.0
2017-Oct-08 23:30N 68°48' E 016°33'0 0.0
2017-Oct-08 23:00N 68°48' E 016°33'0 0.0
2017-Oct-08 22:30N 68°48' E 016°33'0 0.0
2017-Oct-08 22:00N 68°48' E 016°33'0 0.0
2017-Oct-08 21:30N 68°48' E 016°33'0 0.0
2017-Oct-08 21:00N 68°48' E 016°33'0 0.0
2017-Oct-08 20:30N 68°48' E 016°33'0 0.0
2017-Oct-08 20:00N 68°48' E 016°33'0 0.0
2017-Oct-08 19:31N 68°48' E 016°33'0 0.0
2017-Oct-08 19:00N 68°48' E 016°33'0 0.0
2017-Oct-08 18:30N 68°48' E 016°33'0 0.0
2017-Oct-08 18:00N 68°48' E 016°33'0 0.0
2017-Oct-08 17:30N 68°48' E 016°33'0 0.0
2017-Oct-08 17:00N 68°48' E 016°33'0 0.0
2017-Oct-08 16:30N 68°48' E 016°33'0 0.0
2017-Oct-08 16:00N 68°48' E 016°33'0 0.0
2017-Oct-08 15:31N 68°48' E 016°33'0 0.0
2017-Oct-08 15:00N 68°48' E 016°33'0 0.0
2017-Oct-08 14:30N 68°48' E 016°33'0 0.0
2017-Oct-08 14:00N 68°48' E 016°33'0 0.0
2017-Oct-08 13:30N 68°48' E 016°33'0 0.0
2017-Oct-08 13:00N 68°48' E 016°33'0 0.0
2017-Oct-08 12:30N 68°48' E 016°33'0 0.0
2017-Oct-08 12:01N 68°48' E 016°33'0 0.0
2017-Oct-08 11:30N 68°48' E 016°33'0 0.0
2017-Oct-08 11:00N 68°48' E 016°33'0 0.0
2017-Oct-08 10:30N 68°48' E 016°33'0 0.0
2017-Oct-08 10:00N 68°48' E 016°33'0 0.0
2017-Oct-08 09:30N 68°48' E 016°33'0 0.0
2017-Oct-08 09:00N 68°48' E 016°33'0 0.0
2017-Oct-08 08:30N 68°48' E 016°33'0 0.0
2017-Oct-08 08:00N 68°48' E 016°33'0 0.0
2017-Oct-08 07:30N 68°48' E 016°33'0 0.0
2017-Oct-08 07:00N 68°48' E 016°33'0 0.0
2017-Oct-08 06:30N 68°48' E 016°33'0 0.0
2017-Oct-08 06:00N 68°48' E 016°33'0 0.0
2017-Oct-08 05:30N 68°48' E 016°33'0 0.0
2017-Oct-08 05:00N 68°48' E 016°33'0 0.0
2017-Oct-08 04:30N 68°48' E 016°33'0 0.0
2017-Oct-08 04:00N 68°48' E 016°33'0 0.0
2017-Oct-08 03:30N 68°48' E 016°33'0 0.0
2017-Oct-08 03:00N 68°48' E 016°33'0 0.0
2017-Oct-08 02:30N 68°48' E 016°33'0 0.0
2017-Oct-08 02:00N 68°48' E 016°33'0 0.0
2017-Oct-08 01:30N 68°48' E 016°33'0 0.0
2017-Oct-08 01:00N 68°48' E 016°33'0 0.0
2017-Oct-08 00:30N 68°48' E 016°33'0 0.0
2017-Oct-08 00:00N 68°48' E 016°33'0 0.0
2017-Oct-07 23:30N 68°48' E 016°33'0 0.0
2017-Oct-07 23:01N 68°48' E 016°33'0 0.0
2017-Oct-07 22:30N 68°48' E 016°33'0 0.0
2017-Oct-07 22:00N 68°48' E 016°33'0 0.0
2017-Oct-07 21:30N 68°48' E 016°33'0 0.0
2017-Oct-07 21:00N 68°48' E 016°33'0 0.0
2017-Oct-07 20:30N 68°48' E 016°33'0 0.0
2017-Oct-07 20:00N 68°48' E 016°33'0 0.0
2017-Oct-07 19:30N 68°48' E 016°33'0 0.0
2017-Oct-07 19:00N 68°48' E 016°33'0 0.0
2017-Oct-07 18:29N 68°48' E 016°33'0 0.0
2017-Oct-07 18:00N 68°48' E 016°33'0 0.0
2017-Oct-07 17:30N 68°48' E 016°33'0 0.0
2017-Oct-07 17:00N 68°48' E 016°33'0 0.0
2017-Oct-07 16:30N 68°48' E 016°33'0 0.0
2017-Oct-07 16:00N 68°48' E 016°33'0 0.0
2017-Oct-07 15:30N 68°48' E 016°33'0 0.0
2017-Oct-07 15:01N 68°48' E 016°33'0 0.0
2017-Oct-07 14:30N 68°48' E 016°33'0 0.0
2017-Oct-07 14:00N 68°48' E 016°33'0 0.0
2017-Oct-07 13:30N 68°48' E 016°33'0 0.0
2017-Oct-07 13:00N 68°48' E 016°33'0 0.0
2017-Oct-07 12:30N 68°48' E 016°33'0 0.0
2017-Oct-07 12:00N 68°48' E 016°33'0 0.0
2017-Oct-07 11:30N 68°48' E 016°33'0 0.0
2017-Oct-07 11:01N 68°48' E 016°33'0 0.0
2017-Oct-07 10:30N 68°48' E 016°33'0 0.0
2017-Oct-07 10:00N 68°48' E 016°33'0 0.0
2017-Oct-07 09:30N 68°48' E 016°33'0 0.0
2017-Oct-07 09:00N 68°48' E 016°33'0 0.0
2017-Oct-07 08:30N 68°48' E 016°33'0 0.0
2017-Oct-07 08:01N 68°48' E 016°33'0 0.0
2017-Oct-07 07:31N 68°48' E 016°33'0 0.0
2017-Oct-07 07:00N 68°48' E 016°33'0 0.0
2017-Oct-07 06:31N 68°48' E 016°33'0 0.0
2017-Oct-07 06:00N 68°48' E 016°33'0 0.0
2017-Oct-07 05:30N 68°48' E 016°33'0 0.0
2017-Oct-07 05:00N 68°48' E 016°33'0 0.0
2017-Oct-07 04:30N 68°48' E 016°33'0 0.0
2017-Oct-07 04:00N 68°48' E 016°33'0 0.0
2017-Oct-07 03:30N 68°48' E 016°33'0 0.0
2017-Oct-07 03:00N 68°48' E 016°33'0 0.0
2017-Oct-07 02:30N 68°48' E 016°33'0 0.0
2017-Oct-07 02:00N 68°48' E 016°33'0 0.0
2017-Oct-07 01:30N 68°48' E 016°33'0 0.0
2017-Oct-07 01:00N 68°48' E 016°33'0 0.0
2017-Oct-07 00:30N 68°48' E 016°33'0 0.0
2017-Oct-07 00:00N 68°48' E 016°33'0 0.0
2017-Oct-06 23:30N 68°48' E 016°33'0 0.0
2017-Oct-06 23:00N 68°48' E 016°33'0 0.0
2017-Oct-06 22:30N 68°48' E 016°33'0 0.0
2017-Oct-06 22:00N 68°48' E 016°33'0 0.0
2017-Oct-06 21:30N 68°48' E 016°33'0 0.0
2017-Oct-06 21:00N 68°48' E 016°33'0 0.0
2017-Oct-06 20:30N 68°48' E 016°33'0 0.0
2017-Oct-06 20:01N 68°48' E 016°33'0 0.0
2017-Oct-06 19:30N 68°48' E 016°33'0 0.0
2017-Oct-06 19:00N 68°48' E 016°33'0 0.0
2017-Oct-06 18:30N 68°48' E 016°33'0 0.0
2017-Oct-06 18:00N 68°48' E 016°33'0 0.0
2017-Oct-06 17:30N 68°48' E 016°33'0 0.0
2017-Oct-06 17:00N 68°48' E 016°33'0 0.0
2017-Oct-06 16:30N 68°48' E 016°33'0 0.0
2017-Oct-06 16:00N 68°48' E 016°33'0 0.0
2017-Oct-06 15:30N 68°48' E 016°33'0 0.0
2017-Oct-06 15:00N 68°48' E 016°33'0 0.0
2017-Oct-06 14:30N 68°48' E 016°33'0 0.0
2017-Oct-06 14:00N 68°48' E 016°33'0 0.0
2017-Oct-06 13:31N 68°48' E 016°33'0 0.0
2017-Oct-06 13:00N 68°48' E 016°33'0 0.0
2017-Oct-06 12:31N 68°48' E 016°33'0 0.0
2017-Oct-06 12:00N 68°48' E 016°33'0 0.0
2017-Oct-06 11:30N 68°48' E 016°33'0 0.0
2017-Oct-06 11:00N 68°48' E 016°33'0 0.0
2017-Oct-06 10:29N 68°48' E 016°33'0 0.0
2017-Oct-06 10:00N 68°48' E 016°33'0 0.0
2017-Oct-06 09:30N 68°48' E 016°33'0 0.0
2017-Oct-06 09:00N 68°48' E 016°33'0 0.0
2017-Oct-06 08:30N 68°48' E 016°33'0 0.0
2017-Oct-06 08:00N 68°48' E 016°33'0 0.0
2017-Oct-06 07:30N 68°48' E 016°33'0 0.0
2017-Oct-06 07:01N 68°48' E 016°33'0 0.0
2017-Oct-06 06:30N 68°48' E 016°33'0 0.0
2017-Oct-06 06:00N 68°48' E 016°33'0 0.0
2017-Oct-06 05:30N 68°48' E 016°33'0 0.0
2017-Oct-06 05:00N 68°48' E 016°33'0 0.0
2017-Oct-06 04:30N 68°48' E 016°33'0 0.0
2017-Oct-06 04:00N 68°48' E 016°33'0 0.0
2017-Oct-06 03:30N 68°48' E 016°33'0 0.0
2017-Oct-06 03:00N 68°48' E 016°33'0 0.0
2017-Oct-06 02:30N 68°48' E 016°33'0 0.0
2017-Oct-06 02:00N 68°48' E 016°33'0 0.0
2017-Oct-06 01:30N 68°48' E 016°33'0 0.0
2017-Oct-06 01:00N 68°48' E 016°33'0 0.0
2017-Oct-06 00:31N 68°48' E 016°33'0 0.0
2017-Oct-06 00:00N 68°48' E 016°33'0 0.0
2017-Oct-05 23:30N 68°48' E 016°33'0 0.0
2017-Oct-05 23:00N 68°48' E 016°33'0 0.0
2017-Oct-05 22:30N 68°48' E 016°33'0 0.0
2017-Oct-05 22:00N 68°48' E 016°33'0 0.0
2017-Oct-05 21:30N 68°48' E 016°33'0 0.0
2017-Oct-05 21:01N 68°48' E 016°33'0 0.0
2017-Oct-05 20:30N 68°48' E 016°33'0 0.0
2017-Oct-05 20:00N 68°48' E 016°33'0 0.0
2017-Oct-05 19:31N 68°48' E 016°33'0 0.0
2017-Oct-05 19:01N 68°48' E 016°33'0 0.0
2017-Oct-05 18:30N 68°48' E 016°33'0 0.0
2017-Oct-05 18:00N 68°48' E 016°33'0 0.0
2017-Oct-05 17:30N 68°48' E 016°33'0 0.0
2017-Oct-05 17:00N 68°48' E 016°33'0 0.3
2017-Oct-05 15:30N 68°48' E 016°33'0 0.9
2017-Oct-05 15:00N 68°48' E 016°33'0 0.0
2017-Oct-05 14:30N 68°48' E 016°33'0 0.0
2017-Oct-05 14:00N 68°48' E 016°33'0 0.0
2017-Oct-05 13:30N 68°48' E 016°33'0 0.0
2017-Oct-05 13:00N 68°48' E 016°33'0 0.0
2017-Oct-05 12:30N 68°48' E 016°33'0 0.0
2017-Oct-05 12:00N 68°48' E 016°33'0 0.0
2017-Oct-05 11:30N 68°48' E 016°33'0 0.0
2017-Oct-05 11:00N 68°48' E 016°33'0 0.0
2017-Oct-05 10:30N 68°48' E 016°33'0 0.0
2017-Oct-05 10:00N 68°48' E 016°33'0 0.0
2017-Oct-05 09:31N 68°48' E 016°33'0 0.0
2017-Oct-05 09:00N 68°48' E 016°33'0 0.0
2017-Oct-05 08:30N 68°48' E 016°33'0 0.0
2017-Oct-05 08:00N 68°48' E 016°33'0 0.0
2017-Oct-05 07:30N 68°48' E 016°33'0 0.0
2017-Oct-05 07:00N 68°48' E 016°33'0 0.0
2017-Oct-05 06:30N 68°48' E 016°33'0 0.0
2017-Oct-05 06:00N 68°48' E 016°33'0 0.0
2017-Oct-05 05:30N 68°48' E 016°33'0 0.0
2017-Oct-05 05:00N 68°48' E 016°33'0 0.0
2017-Oct-05 04:31N 68°48' E 016°33'0 0.0
2017-Oct-05 04:00N 68°48' E 016°33'0 0.0
2017-Oct-05 03:31N 68°48' E 016°33'0 0.0
2017-Oct-05 03:00N 68°48' E 016°33'0 0.0
2017-Oct-05 02:30N 68°48' E 016°33'0 0.0
2017-Oct-05 02:01N 68°48' E 016°33'0 0.0
2017-Oct-05 01:31N 68°48' E 016°33'0 0.0
2017-Oct-05 01:01N 68°48' E 016°33'0 0.0
2017-Oct-05 00:31N 68°48' E 016°33'0 0.0
2017-Oct-05 00:00N 68°48' E 016°33'0 0.0
2017-Oct-04 23:30N 68°48' E 016°33'0 0.0
2017-Oct-04 23:00N 68°48' E 016°33'0 0.0
2017-Oct-04 22:30N 68°48' E 016°33'0 0.0
2017-Oct-04 21:59N 68°48' E 016°33'0 0.0
2017-Oct-04 21:31N 68°48' E 016°33'0 0.0
2017-Oct-04 21:01N 68°48' E 016°33'0 0.0
2017-Oct-04 20:30N 68°48' E 016°33'0 0.0
2017-Oct-04 20:01N 68°48' E 016°33'0 0.0
2017-Oct-04 19:30N 68°48' E 016°33'0 0.0
2017-Oct-04 19:00N 68°48' E 016°33'0 0.0
2017-Oct-04 18:31N 68°48' E 016°33'0 0.0
2017-Oct-04 18:00N 68°48' E 016°33'0 0.0
2017-Oct-04 17:30N 68°48' E 016°33'0 0.0
2017-Oct-04 17:00N 68°48' E 016°33'0 0.0
2017-Oct-04 16:30N 68°48' E 016°33'0 0.0
2017-Oct-04 16:00N 68°48' E 016°33'0 0.0
2017-Oct-04 15:30N 68°48' E 016°33'0 0.0
2017-Oct-04 15:00N 68°48' E 016°33'0 0.0
2017-Oct-04 14:30N 68°48' E 016°33'0 0.0
2017-Oct-04 14:00N 68°48' E 016°33'0 0.0
2017-Oct-04 13:30N 68°48' E 016°33'0 0.0
2017-Oct-04 13:00N 68°48' E 016°33'0 0.0
2017-Oct-04 12:31N 68°48' E 016°33'0 0.0
2017-Oct-04 12:00N 68°48' E 016°33'0 0.0
2017-Oct-04 11:30N 68°48' E 016°33'0 0.0
2017-Oct-04 11:01N 68°48' E 016°33'0 0.0
2017-Oct-04 10:30N 68°48' E 016°33'0 0.0
2017-Oct-04 10:00N 68°48' E 016°33'0 0.0
2017-Oct-04 09:30N 68°48' E 016°33'0 0.0
2017-Oct-04 09:00N 68°48' E 016°33'0 0.0
2017-Oct-04 08:30N 68°48' E 016°33'0 0.0
2017-Oct-04 08:00N 68°48' E 016°33'0 0.0
2017-Oct-04 07:30N 68°48' E 016°33'0 0.0
2017-Oct-04 07:00N 68°48' E 016°33'0 0.0
2017-Oct-04 06:31N 68°48' E 016°33'0 0.0
2017-Oct-04 06:00N 68°48' E 016°33'0 0.0
2017-Oct-04 05:30N 68°48' E 016°33'0 0.0
2017-Oct-04 04:59N 68°48' E 016°33'0 0.0
2017-Oct-04 04:30N 68°48' E 016°33'0 0.0
2017-Oct-04 04:00N 68°48' E 016°33'0 0.0
2017-Oct-04 03:30N 68°48' E 016°33'0 0.0
2017-Oct-04 03:01N 68°48' E 016°33'0 0.0
2017-Oct-04 02:30N 68°48' E 016°33'0 0.0
2017-Oct-04 02:00N 68°48' E 016°33'0 0.0
2017-Oct-04 01:30N 68°48' E 016°33'0 0.0
2017-Oct-04 01:01N 68°48' E 016°33'0 0.0
2017-Oct-04 00:31N 68°48' E 016°33'0 0.0
2017-Oct-04 00:00N 68°48' E 016°33'0 0.0
2017-Oct-03 23:30N 68°48' E 016°33'0 0.0
2017-Oct-03 23:00N 68°48' E 016°33'0 0.0
2017-Oct-03 22:30N 68°48' E 016°33'0 0.0
2017-Oct-03 22:00N 68°48' E 016°33'0 0.0
2017-Oct-03 21:30N 68°48' E 016°33'0 0.0
2017-Oct-03 21:00N 68°48' E 016°33'0 0.0
2017-Oct-03 20:30N 68°48' E 016°33'0 0.0
2017-Oct-03 20:00N 68°48' E 016°33'0 0.0
2017-Oct-03 19:30N 68°48' E 016°33'0 0.0
2017-Oct-03 19:00N 68°48' E 016°33'0 0.0
2017-Oct-03 18:30N 68°48' E 016°33'0 0.0
2017-Oct-03 18:00N 68°48' E 016°33'0 0.0
2017-Oct-03 17:30N 68°48' E 016°33'0 0.0
2017-Oct-03 17:00N 68°48' E 016°33'0 0.0
2017-Oct-03 16:30N 68°48' E 016°33'0 0.0
2017-Oct-03 16:00N 68°48' E 016°33'0 0.0
2017-Oct-03 15:30N 68°48' E 016°33'0 0.0
2017-Oct-03 15:00N 68°48' E 016°33'0 0.0
2017-Oct-03 14:01N 68°48' E 016°33'0 0.0
2017-Oct-03 13:31N 68°48' E 016°33'0 0.0
2017-Oct-03 13:01N 68°48' E 016°33'0 0.0
2017-Oct-03 12:30N 68°48' E 016°33'0 0.0
2017-Oct-03 12:00N 68°48' E 016°33'0 0.0
2017-Oct-03 11:30N 68°48' E 016°33'0 0.0
2017-Oct-03 11:00N 68°48' E 016°33'0 0.0
2017-Oct-03 10:30N 68°48' E 016°33'0 0.0
2017-Oct-03 10:00N 68°48' E 016°33'0 0.0
2017-Oct-03 09:30N 68°48' E 016°33'0 0.0
2017-Oct-03 09:00N 68°48' E 016°33'0 0.0
2017-Oct-03 08:30N 68°48' E 016°33'0 0.0
2017-Oct-03 08:01N 68°48' E 016°33'0 0.0
2017-Oct-03 07:30N 68°48' E 016°33'0 0.0
2017-Oct-03 07:00N 68°48' E 016°33'0 0.0
2017-Oct-03 06:30N 68°48' E 016°33'0 0.0
2017-Oct-03 06:00N 68°48' E 016°33'0 0.0
2017-Oct-03 05:30N 68°48' E 016°33'0 0.0
2017-Oct-03 05:00N 68°48' E 016°33'0 0.0
2017-Oct-03 04:30N 68°48' E 016°33'0 0.0
2017-Oct-03 04:00N 68°48' E 016°33'0 0.0
2017-Oct-03 03:30N 68°48' E 016°33'0 0.0
2017-Oct-03 03:00N 68°48' E 016°33'0 0.0
2017-Oct-03 02:30N 68°48' E 016°33'0 0.0
2017-Oct-03 02:00N 68°48' E 016°33'0 0.0
2017-Oct-03 01:31N 68°48' E 016°33'0 0.0
2017-Oct-03 01:00N 68°48' E 016°33'0 0.0
2017-Oct-03 00:30N 68°48' E 016°33'0 0.0
2017-Oct-03 00:00N 68°48' E 016°33'0 0.0
2017-Oct-02 23:30N 68°48' E 016°33'0 0.0
2017-Oct-02 23:01N 68°48' E 016°33'0 0.0
2017-Oct-02 22:30N 68°48' E 016°33'0 0.0
2017-Oct-02 22:01N 68°48' E 016°33'0 0.0
2017-Oct-02 21:30N 68°48' E 016°33'0 0.0
2017-Oct-02 21:00N 68°48' E 016°33'0 0.0
2017-Oct-02 20:30N 68°48' E 016°33'0 0.0
2017-Oct-02 20:01N 68°48' E 016°33'0 0.0
2017-Oct-02 19:31N 68°48' E 016°33'0 0.0
2017-Oct-02 19:00N 68°48' E 016°33'0 0.0
2017-Oct-02 18:31N 68°48' E 016°33'0 0.0
2017-Oct-02 18:00N 68°48' E 016°33'0 0.0
2017-Oct-02 17:30N 68°48' E 016°33'0 0.0
2017-Oct-02 17:00N 68°48' E 016°33'0 0.0
2017-Oct-02 16:30N 68°48' E 016°33'0 0.0
2017-Oct-02 16:00N 68°48' E 016°33'0 0.0
2017-Oct-02 15:30N 68°48' E 016°33'0 0.0
2017-Oct-02 15:00N 68°48' E 016°33'0 0.0
2017-Oct-02 14:31N 68°48' E 016°33'0 0.0
2017-Oct-02 14:00N 68°48' E 016°33'0 0.0
2017-Oct-02 13:31N 68°48' E 016°33'0 0.0
2017-Oct-02 13:00N 68°48' E 016°33'0 0.0
2017-Oct-02 12:31N 68°48' E 016°33'0 0.0
2017-Oct-02 12:00N 68°48' E 016°33'0 0.0
2017-Oct-02 11:30N 68°48' E 016°33'0 0.0
2017-Oct-02 11:00N 68°48' E 016°33'0 0.0
2017-Oct-02 10:30N 68°48' E 016°33'0 0.0
2017-Oct-02 10:00N 68°48' E 016°33'0 0.0
2017-Oct-02 09:30N 68°48' E 016°33'0 0.0
2017-Oct-02 09:00N 68°48' E 016°33'0 0.0
2017-Oct-02 08:30N 68°48' E 016°33'0 0.0
2017-Oct-02 08:00N 68°48' E 016°33'0 0.0
2017-Oct-02 07:30N 68°48' E 016°33'0 0.0
2017-Oct-02 07:00N 68°48' E 016°33'0 0.0
2017-Oct-02 06:31N 68°48' E 016°33'0 0.0
2017-Oct-02 06:00N 68°48' E 016°33'0 0.0
2017-Oct-02 05:30N 68°48' E 016°33'0 0.0
2017-Oct-02 05:00N 68°48' E 016°33'0 0.0
2017-Oct-02 04:30N 68°48' E 016°33'0 0.0
2017-Oct-02 04:00N 68°48' E 016°33'0 0.0
2017-Oct-02 03:31N 68°48' E 016°33'0 0.0
2017-Oct-02 03:00N 68°48' E 016°33'0 0.0
2017-Oct-02 02:30N 68°48' E 016°33'0 0.0
2017-Oct-02 02:00N 68°48' E 016°33'0 0.0
2017-Oct-02 01:30N 68°48' E 016°33'0 0.0
2017-Oct-02 01:00N 68°48' E 016°33'0 0.0
2017-Oct-02 00:30N 68°48' E 016°33'0 0.0
2017-Oct-02 00:00N 68°48' E 016°33'0 0.0
2017-Oct-01 23:30N 68°48' E 016°33'0 0.0
2017-Oct-01 23:00N 68°48' E 016°33'0 0.0
2017-Oct-01 22:30N 68°48' E 016°33'0 0.0
2017-Oct-01 22:00N 68°48' E 016°33'0 0.0
2017-Oct-01 21:30N 68°48' E 016°33'0 0.0
2017-Oct-01 21:00N 68°48' E 016°33'0 0.0
2017-Oct-01 20:30N 68°48' E 016°33'0 0.0
2017-Oct-01 20:01N 68°48' E 016°33'0 0.0
2017-Oct-01 19:30N 68°48' E 016°33'0 0.0
2017-Oct-01 19:00N 68°48' E 016°33'0 0.0
2017-Oct-01 18:29N 68°48' E 016°33'0 0.0
2017-Oct-01 18:00N 68°48' E 016°33'0 0.0
2017-Oct-01 17:30N 68°48' E 016°33'0 0.0
2017-Oct-01 17:00N 68°48' E 016°33'0 0.0
2017-Oct-01 16:30N 68°48' E 016°33'0 0.0
2017-Oct-01 16:00N 68°48' E 016°33'0 0.0
2017-Oct-01 15:30N 68°48' E 016°33'0 0.0
2017-Oct-01 15:00N 68°48' E 016°33'0 0.0
2017-Oct-01 14:30N 68°48' E 016°33'0 0.0
2017-Oct-01 14:00N 68°48' E 016°33'0 0.0
2017-Oct-01 13:31N 68°48' E 016°33'0 0.0
2017-Oct-01 13:00N 68°48' E 016°33'0 0.0
2017-Oct-01 12:30N 68°48' E 016°33'0 0.0
2017-Oct-01 12:01N 68°48' E 016°33'0 0.0
2017-Oct-01 11:31N 68°48' E 016°33'0 0.0
2017-Oct-01 11:01N 68°48' E 016°33'0 0.0
2017-Oct-01 10:30N 68°48' E 016°33'0 0.0
2017-Oct-01 10:00N 68°48' E 016°33'0 0.0
2017-Oct-01 09:30N 68°48' E 016°33'0 0.0
2017-Oct-01 09:01N 68°48' E 016°33'0 0.0
2017-Oct-01 08:30N 68°48' E 016°33'0 0.0
2017-Oct-01 08:00N 68°48' E 016°33'0 0.0
2017-Oct-01 07:31N 68°48' E 016°33'0 0.0
2017-Oct-01 06:59N 68°48' E 016°33'0 0.0
2017-Oct-01 06:30N 68°48' E 016°33'0 0.0
2017-Oct-01 06:00N 68°48' E 016°33'0 0.0
2017-Oct-01 05:30N 68°48' E 016°33'0 0.0
2017-Oct-01 04:59N 68°48' E 016°33'0 0.0
2017-Oct-01 04:30N 68°48' E 016°33'0 0.0
2017-Oct-01 04:00N 68°48' E 016°33'0 0.0
2017-Oct-01 03:30N 68°48' E 016°33'0 0.0
2017-Oct-01 03:00N 68°48' E 016°33'  

Dump ship's entire track history